Time;durP1;ratioP1;P1;durP2;ratioP2;P2;SDS_P1;SDS_P2;PMS_P1;PMS_P2;Temp;Humidity;BMP_temperature;BMP_pressure;BME280_temperature;BME280_humidity;BME280_pressure;Samples;Min_cycle;Max_cycle;Signal;HPM_P1;HPM_P2
2022/08/11 00:01:08;;;;;;;5.00;3.07;;;;;;;23.24;33.68;98520.09;8446361;28;20226;-72
2022/08/11 00:05:14;;;;;;;4.87;2.90;;;;;;;23.19;33.99;98517.06;8447198;28;20232;-72
2022/08/11 00:09:20;;;;;;;6.53;3.30;;;;;;;23.09;34.26;98513.53;8446949;28;20531;-72
2022/08/11 00:13:23;;;;;;;6.93;2.97;;;;;;;23.03;34.67;98510.44;8447179;28;20516;-72
2022/08/11 00:17:28;;;;;;;5.33;3.53;;;;;;;22.93;34.65;98519.28;8446885;28;20234;-72
2022/08/11 00:21:32;;;;;;;7.73;3.60;;;;;;;22.86;34.77;98523.41;8446821;28;20240;-72
2022/08/11 00:25:57;;;;;;;7.37;3.40;;;;;;;22.84;35.09;98520.91;8446250;28;20222;-72
2022/08/11 00:30:00;;;;;;;4.87;3.10;;;;;;;22.70;35.83;98522.09;8446613;28;20236;-72
2022/08/11 00:34:04;;;;;;;6.63;3.10;;;;;;;22.66;35.51;98525.97;8446672;28;20241;-73
2022/08/11 00:38:08;;;;;;;7.40;3.13;;;;;;;22.61;35.30;98531.63;8446531;28;20418;-72
2022/08/11 00:42:19;;;;;;;4.70;3.20;;;;;;;22.56;35.14;98522.41;8446333;28;20225;-72
2022/08/11 00:46:31;;;;;;;11.00;3.37;;;;;;;22.55;34.98;98524.22;8452788;28;20237;-72
2022/08/11 00:50:50;;;;;;;6.17;3.33;;;;;;;22.45;35.38;98518.91;8453292;28;20232;-72
2022/08/11 00:55:17;;;;;;;5.37;3.43;;;;;;;22.25;35.90;98517.94;8427831;28;20224;-71
2022/08/11 00:59:55;;;;;;;7.97;3.53;;;;;;;22.18;36.34;98510.63;8452572;28;20226;-72
2022/08/11 01:04:20;;;;;;;5.47;3.13;;;;;;;22.18;36.30;98505.34;8452460;28;20234;-72
2022/08/11 01:09:02;;;;;;;4.73;3.30;;;;;;;22.10;36.28;98513.91;8452355;28;20414;-72
2022/08/11 01:13:15;;;;;;;5.60;3.53;;;;;;;22.04;35.78;98517.88;8449785;28;20248;-72
2022/08/11 01:18:10;;;;;;;7.03;3.77;;;;;;;21.92;35.94;98518.91;8452235;28;20232;-72
2022/08/11 01:22:39;;;;;;;7.23;3.60;;;;;;;21.88;35.89;98514.03;8451813;28;20228;-72
2022/08/11 01:27:08;;;;;;;7.10;3.20;;;;;;;21.75;36.14;98516.84;8451956;28;20225;-72
2022/08/11 01:31:37;;;;;;;6.13;3.67;;;;;;;21.71;36.17;98510.13;8451343;28;20231;-72
2022/08/11 01:36:19;;;;;;;7.43;3.40;;;;;;;21.63;36.31;98508.13;8451635;28;20240;-72
2022/08/11 01:40:42;;;;;;;6.23;3.67;;;;;;;21.69;36.39;98506.78;8451226;28;20226;-72
2022/08/11 01:45:03;;;;;;;6.17;3.43;;;;;;;21.49;36.84;98498.69;8451176;28;20240;-72
2022/08/11 01:49:10;;;;;;;6.07;3.70;;;;;;;21.46;36.96;98507.69;8442898;28;20235;-72
2022/08/11 01:53:47;;;;;;;5.10;4.27;;;;;;;21.46;37.01;98502.41;8450903;28;20232;-72
2022/08/11 01:57:54;;;;;;;5.57;3.80;;;;;;;21.43;36.99;98501.78;8449689;28;20243;-72
2022/08/11 02:02:44;;;;;;;7.77;4.20;;;;;;;21.36;37.64;98509.38;8450413;28;20236;-72
2022/08/11 02:06:57;;;;;;;5.27;4.10;;;;;;;21.34;37.17;98499.88;8450070;28;20232;-72
2022/08/11 02:11:33;;;;;;;4.20;3.80;;;;;;;21.27;37.10;98497.75;8450533;28;20230;-72
2022/08/11 02:15:43;;;;;;;11.43;4.10;;;;;;;21.18;37.59;98508.19;8450509;28;20233;-72
2022/08/11 02:24:17;;;;;;;6.77;4.20;;;;;;;21.09;37.77;98494.81;8449849;28;20233;-72
2022/08/11 02:28:27;;;;;;;6.07;3.87;;;;;;;21.17;37.80;98504.72;8449979;28;20359;-72
2022/08/11 02:37:03;;;;;;;5.37;3.77;;;;;;;21.05;37.98;98490.72;8449412;28;20224;-72
2022/08/11 02:42:21;;;;;;;6.27;3.90;;;;;;;21.08;37.98;98490.47;8449520;28;20418;-72
2022/08/11 02:45:46;;;;;;;6.27;4.30;;;;;;;20.92;38.25;98497.91;8449166;28;20238;-72
2022/08/11 02:49:56;;;;;;;8.00;4.00;;;;;;;20.88;38.46;98502.56;8448956;28;20225;-72
2022/08/11 02:54:13;;;;;;;12.60;4.80;;;;;;;20.81;38.38;98493.50;8449048;28;20239;-72
2022/08/11 02:58:21;;;;;;;4.23;3.83;;;;;;;20.70;38.49;98507.47;8448946;28;20255;-72
2022/08/11 03:02:51;;;;;;;5.70;3.97;;;;;;;20.74;38.30;98505.44;8448778;28;20230;-72
2022/08/11 03:07:00;;;;;;;5.40;3.93;;;;;;;20.70;38.64;98498.75;8432434;28;20266;-72
2022/08/11 03:20:09;;;;;;;9.30;4.70;;;;;;;20.56;38.92;98498.94;8447969;28;20236;-72
2022/08/11 03:24:18;;;;;;;7.27;4.90;;;;;;;20.51;39.06;98500.13;8447979;28;20230;-72
2022/08/11 03:28:29;;;;;;;9.63;4.57;;;;;;;20.50;39.15;98506.38;8448048;28;20236;-72
2022/08/11 03:32:36;;;;;;;5.83;4.20;;;;;;;20.46;39.47;98499.66;8447909;28;20226;-73
2022/08/11 03:37:07;;;;;;;8.03;3.97;;;;;;;20.46;39.28;98504.91;8447816;28;20533;-72
2022/08/11 03:41:45;;;;;;;4.40;4.00;;;;;;;20.36;39.71;98501.31;8443302;28;20242;-73
2022/08/11 03:46:10;;;;;;;8.60;4.73;;;;;;;20.35;39.93;98498.78;8447373;28;20543;-72
2022/08/11 03:50:23;;;;;;;6.53;4.07;;;;;;;20.26;40.45;98501.19;8447690;28;20238;-72
2022/08/11 03:54:38;;;;;;;8.87;3.83;;;;;;;20.31;40.72;98496.41;8447306;28;20429;-72
2022/08/11 03:59:16;;;;;;;8.93;3.73;;;;;;;20.25;41.33;98496.03;8447074;28;20227;-72
2022/08/11 04:03:41;;;;;;;5.80;3.90;;;;;;;20.29;41.27;98493.03;8446210;28;20386;-72
2022/08/11 04:08:16;;;;;;;5.80;4.07;;;;;;;20.27;41.44;98502.00;8415640;28;20226;-72
2022/08/11 04:12:39;;;;;;;6.57;3.60;;;;;;;20.17;41.77;98499.25;8413147;28;20227;-73
2022/08/11 04:17:02;;;;;;;7.40;3.87;;;;;;;20.21;41.86;98499.84;8413058;28;20218;-72
2022/08/11 04:21:11;;;;;;;7.77;4.40;;;;;;;20.13;41.83;98499.59;8412840;28;20433;-72
2022/08/11 04:25:59;;;;;;;9.43;4.40;;;;;;;20.11;42.06;98497.91;8413260;28;20569;-72
2022/08/11 04:30:17;;;;;;;7.57;4.50;;;;;;;20.03;42.12;98496.78;8380238;28;20399;-72
2022/08/11 04:34:45;;;;;;;8.50;4.70;;;;;;;20.01;41.59;98493.44;8413258;28;20406;-72
2022/08/11 04:39:05;;;;;;;6.63;4.50;;;;;;;20.11;41.59;98503.16;8412502;28;20230;-72
2022/08/11 04:43:35;;;;;;;6.67;5.07;;;;;;;20.10;41.76;98501.50;8413071;28;20222;-72
2022/08/11 05:02:14;;;;;;;10.83;4.87;;;;;;;20.25;42.78;98519.69;8445516;28;20218;-72
2022/08/11 05:06:47;;;;;;;7.53;4.70;;;;;;;20.30;42.74;98525.44;8446293;28;20236;-72
2022/08/11 05:11:12;;;;;;;7.43;4.90;;;;;;;20.36;42.91;98530.25;8445779;28;20232;-72
2022/08/11 05:37:24;;;;;;;12.30;5.30;;;;;;;20.96;41.98;98540.63;8418051;28;20565;-72
2022/08/11 05:59:02;;;;;;;6.20;3.30;;;;;;;21.72;39.48;98548.69;8450560;28;20293;-72
2022/08/11 06:03:06;;;;;;;6.27;3.83;;;;;;;21.96;39.58;98544.06;8450834;28;20250;-72
2022/08/11 06:07:10;;;;;;;9.00;3.83;;;;;;;22.12;39.21;98545.44;8450265;28;20226;-72
2022/08/11 06:11:13;;;;;;;7.93;3.50;;;;;;;22.31;38.78;98539.50;8450646;28;20522;-72
2022/08/11 06:15:17;;;;;;;7.47;3.30;;;;;;;22.59;38.60;98548.56;8450587;28;20233;-72
2022/08/11 06:19:22;;;;;;;9.20;3.57;;;;;;;22.74;38.26;98543.78;8450207;28;20234;-72
2022/08/11 06:23:32;;;;;;;10.17;3.30;;;;;;;22.78;38.22;98542.56;8450224;28;20263;-72
2022/08/11 06:27:40;;;;;;;12.43;3.60;;;;;;;23.21;38.14;98541.53;8449987;28;20226;-72
2022/08/11 06:31:52;;;;;;;6.10;3.13;;;;;;;23.45;36.90;98545.63;8450089;28;20638;-73
2022/08/11 06:36:03;;;;;;;9.67;3.20;;;;;;;23.70;36.87;98539.81;8449326;28;20218;-72
2022/08/11 06:40:09;;;;;;;5.70;3.03;;;;;;;23.58;36.05;98528.53;8449605;28;20230;-72
2022/08/11 06:44:17;;;;;;;8.10;3.13;;;;;;;23.60;35.81;98531.03;8448926;28;20386;-72
2022/08/11 06:48:23;;;;;;;8.53;3.30;;;;;;;23.57;35.69;98521.59;8449228;28;20226;-72
2022/08/11 06:52:38;;;;;;;5.90;3.10;;;;;;;23.42;36.23;98523.78;8449336;28;20233;-72
2022/08/11 07:01:32;;;;;;;7.77;2.97;;;;;;;24.32;34.32;98539.56;8448380;28;20394;-72
2022/08/11 07:05:45;;;;;;;8.30;2.83;;;;;;;24.25;34.01;98531.34;8448958;28;20231;-72
2022/08/11 07:32:02;;;;;;;9.30;2.97;;;;;;;25.40;32.47;98514.44;8447640;28;20425;-73
2022/08/11 07:36:05;;;;;;;8.30;2.93;;;;;;;25.17;32.35;98519.28;8447844;28;20236;-72
2022/08/11 07:40:11;;;;;;;5.20;2.70;;;;;;;25.39;31.79;98517.22;8447500;28;20226;-72
2022/08/11 07:44:15;;;;;;;7.27;2.50;;;;;;;25.44;31.24;98514.97;8447493;28;20387;-72
2022/08/11 07:52:40;;;;;;;6.20;2.70;;;;;;;26.15;29.95;98514.16;8437678;28;20242;-72
2022/08/11 07:56:45;;;;;;;5.43;2.90;;;;;;;25.80;29.89;98513.16;8446896;28;20234;-72
2022/08/11 08:18:39;;;;;;;5.30;2.47;;;;;;;26.85;27.91;98505.34;8447043;28;20236;-73
2022/08/11 08:22:43;;;;;;;5.50;2.67;;;;;;;27.06;28.13;98511.06;8446861;28;20529;-73
2022/08/11 08:26:59;;;;;;;3.70;2.37;;;;;;;27.58;26.88;98495.97;8446648;28;20493;-74
2022/08/11 08:31:03;;;;;;;7.53;2.73;;;;;;;27.00;26.22;98501.09;8446821;28;20235;-73
2022/08/11 08:35:07;;;;;;;7.60;2.40;;;;;;;27.38;26.04;98500.72;8446462;28;20228;-78
2022/08/11 08:39:12;;;;;;;8.87;2.60;;;;;;;27.57;25.83;98491.63;8446465;28;20227;-73
2022/08/11 08:43:16;;;;;;;6.70;2.43;;;;;;;27.42;26.02;98484.31;8446627;28;20567;-73
2022/08/11 08:47:20;;;;;;;6.50;2.20;;;;;;;28.19;25.63;98489.38;8446197;28;20293;-73
2022/08/11 08:51:45;;;;;;;5.47;2.10;;;;;;;28.14;25.02;98496.19;8446242;28;20233;-73
2022/08/11 08:56:07;;;;;;;4.53;2.10;;;;;;;28.26;24.09;98501.00;8437946;28;20539;-73
2022/08/11 09:00:11;;;;;;;5.93;2.00;;;;;;;28.39;24.62;98495.19;8446234;28;20232;-73
2022/08/11 09:04:19;;;;;;;10.37;2.43;;;;;;;28.64;24.60;98497.81;8447575;28;20232;-73
2022/08/11 09:08:23;;;;;;;5.13;2.13;;;;;;;29.36;23.47;98496.88;8452545;28;20527;-73
2022/08/11 09:12:27;;;;;;;5.67;2.20;;;;;;;28.47;23.36;98492.50;8452828;28;20413;-73
2022/08/11 09:16:40;;;;;;;6.80;1.97;;;;;;;29.44;23.35;98494.19;8452325;28;20232;-72
2022/08/11 09:20:45;;;;;;;5.93;2.03;;;;;;;30.01;22.34;98493.78;8452244;28;20251;-73
2022/08/11 09:29:11;;;;;;;9.70;2.47;;;;;;;29.81;21.79;98484.59;8452116;28;20229;-74
2022/08/11 09:33:15;;;;;;;4.27;2.07;;;;;;;30.19;21.55;98490.78;8451856;28;20244;-74
2022/08/11 09:41:58;;;;;;;7.67;2.10;;;;;;;28.82;22.59;98489.59;8451332;28;20233;-74
2022/08/11 09:46:05;;;;;;;8.03;2.17;;;;;;;30.19;20.81;98480.09;8451366;28;20238;-75
2022/08/11 09:50:09;;;;;;;3.13;1.97;;;;;;;29.87;20.35;98469.72;8451510;28;20252;-73
2022/08/11 09:54:15;;;;;;;5.23;2.00;;;;;;;30.10;21.57;98451.84;8426613;28;20226;-71
2022/08/11 09:58:20;;;;;;;7.37;2.10;;;;;;;30.20;21.75;98470.28;8417598;28;20240;-73
2022/08/11 10:02:45;;;;;;;5.97;2.40;;;;;;;30.60;21.14;98458.34;8417261;28;20233;-73
2022/08/11 10:07:05;;;;;;;6.60;2.20;;;;;;;30.72;20.32;98461.38;8416612;28;20238;-72
2022/08/11 10:11:13;;;;;;;7.97;2.33;;;;;;;30.32;20.14;98455.47;8417333;28;20243;-72
2022/08/11 10:15:37;;;;;;;4.77;2.10;;;;;;;31.33;20.17;98452.28;8416449;28;20250;-73
2022/08/11 10:19:41;;;;;;;2.00;1.73;;;;;;;31.29;20.54;98448.31;8416822;28;20223;-73
2022/08/11 10:28:09;;;;;;;5.10;1.87;;;;;;;31.60;19.47;98442.69;8416545;28;20506;-73
2022/08/11 10:37:02;;;;;;;5.03;1.90;;;;;;;31.30;19.30;98437.44;8416105;28;20241;-72
2022/08/11 10:58:50;;;;;;;4.70;1.80;;;;;;;32.04;19.10;98414.88;8448775;28;20228;-73
2022/08/11 11:02:54;;;;;;;6.03;2.27;;;;;;;31.30;20.05;98421.38;8448464;28;20417;-72
2022/08/11 11:07:19;;;;;;;3.40;1.63;;;;;;;32.40;19.62;98418.41;8448865;28;20227;-72
2022/08/11 11:17:54;;;;;;;5.13;2.23;;;;;;;32.93;19.32;98402.59;8449003;28;20227;-72
2022/08/11 11:20:10;;;;;;;4.20;1.80;;;;;;;32.69;18.12;98402.09;8448324;28;20227;-72
2022/08/11 11:24:42;;;;;;;2.67;1.53;;;;;;;32.06;17.63;98391.41;8440693;28;20573;-72
2022/08/11 11:29:23;;;;;;;4.67;1.90;;;;;;;31.65;18.30;98394.78;8448388;28;20415;-73
2022/08/11 11:33:45;;;;;;;5.60;1.90;;;;;;;31.89;18.26;98385.50;8447915;28;20224;-72
2022/08/11 11:38:10;;;;;;;4.57;1.90;;;;;;;31.97;17.34;98379.16;8447468;28;20232;-73
2022/08/11 11:42:17;;;;;;;4.67;1.70;;;;;;;32.91;17.95;98361.75;8447793;28;20231;-72
2022/08/11 11:46:20;;;;;;;4.70;1.83;;;;;;;32.28;16.70;98370.72;8447441;28;20242;-72
2022/08/11 11:50:26;;;;;;;8.47;2.00;;;;;;;32.29;17.46;98369.72;8447844;28;20235;-72
2022/08/11 11:54:35;;;;;;;1.73;1.30;;;;;;;32.97;16.70;98355.56;8447412;28;20251;-72
2022/08/11 12:03:02;;;;;;;8.37;2.13;;;;;;;32.56;16.73;98350.22;8447115;28;20250;-73
2022/08/11 12:15:48;;;;;;;8.27;1.57;;;;;;;33.28;16.22;98347.00;8446591;28;20227;-72
2022/08/11 12:20:13;;;;;;;6.50;1.57;;;;;;;33.29;16.86;98337.88;8446810;28;20232;-72
2022/08/11 12:28:59;;;;;;;7.23;1.80;;;;;;;32.80;15.61;98341.69;8446959;28;20245;-74
2022/08/11 12:33:02;;;;;;;6.80;1.63;;;;;;;32.88;15.36;98321.91;8446516;28;20410;-72
2022/08/11 12:37:09;;;;;;;3.63;1.60;;;;;;;33.17;16.63;98326.13;8446668;28;20244;-73
2022/08/11 12:45:40;;;;;;;5.07;1.50;;;;;;;33.71;15.73;98316.25;8453532;28;20228;-72
2022/08/11 12:54:10;;;;;;;3.10;1.60;;;;;;;33.51;15.14;98305.50;8452963;28;20227;-72
2022/08/11 12:58:17;;;;;;;4.73;1.67;;;;;;;33.36;14.89;98307.53;8452838;28;20510;-72
2022/08/11 13:06:46;;;;;;;4.53;1.63;;;;;;;33.77;15.26;98283.16;8452860;28;20230;-73
2022/08/11 13:15:14;;;;;;;2.73;1.77;;;;;;;33.16;15.43;98286.91;8452242;28;20223;-72
2022/08/11 13:19:19;;;;;;;2.73;1.30;;;;;;;33.22;16.19;98283.38;8452350;28;20232;-72
2022/08/11 13:23:23;;;;;;;2.87;1.57;;;;;;;33.43;16.25;98276.16;8449358;28;20233;-72
2022/08/11 13:27:26;;;;;;;8.43;1.70;;;;;;;33.57;15.81;98271.63;8417995;28;20427;-72
2022/08/11 13:31:29;;;;;;;2.73;1.40;;;;;;;33.71;15.97;98275.16;8421959;28;20253;-72
2022/08/11 13:35:33;;;;;;;11.43;1.60;;;;;;;33.38;15.38;98268.75;8417927;28;20232;-72
2022/08/11 13:39:38;;;;;;;9.37;1.70;;;;;;;32.95;16.12;98274.47;8417788;28;20230;-72
2022/08/11 13:43:41;;;;;;;7.80;1.83;;;;;;;32.32;16.26;98270.16;8416331;28;20237;-72
2022/08/11 13:47:44;;;;;;;4.70;1.60;;;;;;;32.53;16.80;98255.78;8417472;28;20235;-72
2022/08/11 13:51:49;;;;;;;4.20;1.80;;;;;;;32.82;15.61;98256.50;8416795;28;20528;-72
2022/08/11 13:55:53;;;;;;;10.17;1.93;;;;;;;32.24;15.97;98254.25;8434978;28;20538;-72
2022/08/11 14:00:08;;;;;;;8.17;1.90;;;;;;;32.71;16.31;98251.72;8437172;28;20225;-72
2022/08/11 14:04:28;;;;;;;5.90;1.80;;;;;;;32.88;15.65;98244.97;8416957;28;20235;-72
2022/08/11 14:08:38;;;;;;;2.87;1.70;;;;;;;33.04;16.48;98242.91;8419713;28;20500;-72
2022/08/11 14:17:11;;;;;;;6.73;1.70;;;;;;;31.56;16.88;98233.47;8416401;28;20236;-72
2022/08/11 14:34:41;;;;;;;2.50;1.33;;;;;;;32.86;15.19;98224.75;8416087;28;20401;-72
2022/08/11 14:38:44;;;;;;;3.27;1.50;;;;;;;32.43;15.89;98217.84;8415982;28;20227;-73
2022/08/11 14:47:13;;;;;;;5.57;1.60;;;;;;;32.21;16.05;98217.16;8415833;28;20524;-72
2022/08/11 14:51:27;;;;;;;4.47;1.40;;;;;;;31.91;16.14;98205.88;8419508;28;20241;-73
2022/08/11 14:59:55;;;;;;;3.20;1.70;;;;;;;32.61;17.12;98197.69;8448410;28;20234;-71
2022/08/11 15:03:58;;;;;;;5.53;1.70;;;;;;;31.96;16.44;98196.22;8448246;28;20250;-71
2022/08/11 15:08:53;;;;;;;4.17;1.83;;;;;;;31.85;16.67;98195.97;8448640;28;20228;-71
2022/08/11 15:12:45;;;;;;;3.77;1.80;;;;;;;31.52;16.54;98191.25;8448453;28;20235;-72
2022/08/11 15:17:08;;;;;;;3.53;1.60;;;;;;;31.27;16.32;98190.88;8447890;28;20231;-71
2022/08/11 15:25:33;;;;;;;6.93;2.07;;;;;;;31.86;17.45;98194.94;8448298;28;20228;-72
2022/08/11 15:38:35;;;;;;;5.27;1.90;;;;;;;31.24;17.81;98172.53;8447853;28;20226;-72
2022/08/11 15:47:07;;;;;;;5.37;1.63;;;;;;;30.91;17.61;98165.09;8447176;28;20246;-72
2022/08/11 15:51:12;;;;;;;3.77;1.77;;;;;;;31.03;17.09;98166.19;8445865;28;20226;-72
2022/08/11 15:55:16;;;;;;;5.70;1.93;;;;;;;30.49;18.38;98172.91;8413913;28;20412;-72
2022/08/11 16:08:25;;;;;;;8.43;1.93;;;;;;;30.89;18.42;98151.88;8413387;28;20228;-72
2022/08/11 16:12:38;;;;;;;5.20;1.67;;;;;;;30.79;18.14;98149.53;8413452;28;20230;-72
2022/08/11 16:16:41;;;;;;;6.40;1.70;;;;;;;30.34;18.67;98145.44;8412508;28;20529;-72
2022/08/11 16:20:44;;;;;;;5.70;1.80;;;;;;;30.48;18.80;98147.22;8420000;28;20220;-72
2022/08/11 16:24:49;;;;;;;3.27;1.63;;;;;;;30.44;18.91;98143.25;8446318;28;20389;-72
2022/08/11 16:29:12;;;;;;;9.47;2.00;;;;;;;30.09;19.29;98129.72;8446653;28;20415;-72
2022/08/11 16:33:15;;;;;;;4.87;1.80;;;;;;;30.14;19.44;98124.66;8446725;28;20238;-72
2022/08/11 16:46:59;;;;;;;9.17;1.90;;;;;;;29.74;19.86;98124.22;8310187;28;20250;-72
2022/08/11 16:51:01;;;;;;;5.03;1.50;;;;;;;29.57;20.39;98117.41;8384913;28;20242;-72
2022/08/11 16:55:05;;;;;;;6.33;1.90;;;;;;;29.65;20.01;98121.81;8446270;28;20229;-73
2022/08/11 16:59:14;;;;;;;3.70;1.57;;;;;;;29.58;19.96;98122.53;8446228;28;20233;-72
2022/08/11 17:16:33;;;;;;;2.50;1.70;;;;;;;29.46;20.48;98131.22;8445764;28;20228;-73
2022/08/11 17:20:37;;;;;;;5.33;1.80;;;;;;;29.30;20.38;98119.72;8445651;28;20229;-73
2022/08/11 17:24:47;;;;;;;5.07;1.77;;;;;;;29.18;20.12;98121.16;8445937;28;20237;-73
2022/08/11 17:28:55;;;;;;;4.80;2.03;;;;;;;29.11;20.70;98125.53;8435043;28;20225;-72
2022/08/11 17:37:20;;;;;;;4.60;2.00;;;;;;;29.09;20.68;98114.22;8412580;28;20227;-71
2022/08/11 17:50:12;;;;;;;2.80;1.90;;;;;;;28.95;20.74;98131.88;8416944;28;20243;-72
